sensor_id;sensor_type;location;lat;lon;timestamp;temperature;humidity
76607;DHT22;65498;50.916;4.698;2023-03-19T00:00:41;22.40;48.90
76607;DHT22;65498;50.916;4.698;2023-03-19T00:03:09;22.30;48.90
76607;DHT22;65498;50.916;4.698;2023-03-19T00:05:37;22.40;48.90
76607;DHT22;65498;50.916;4.698;2023-03-19T00:08:04;22.40;48.80
76607;DHT22;65498;50.916;4.698;2023-03-19T00:10:32;22.40;48.90
76607;DHT22;65498;50.916;4.698;2023-03-19T00:13:02;22.40;48.90
76607;DHT22;65498;50.916;4.698;2023-03-19T00:15:29;22.50;48.60
76607;DHT22;65498;50.916;4.698;2023-03-19T00:17:57;22.50;48.60
76607;DHT22;65498;50.916;4.698;2023-03-19T00:20:24;22.50;48.50
76607;DHT22;65498;50.916;4.698;2023-03-19T00:22:52;22.50;48.60
76607;DHT22;65498;50.916;4.698;2023-03-19T00:25:20;22.50;48.60
76607;DHT22;65498;50.916;4.698;2023-03-19T00:27:47;22.50;48.60
76607;DHT22;65498;50.916;4.698;2023-03-19T00:30:15;22.40;48.90
76607;DHT22;65498;50.916;4.698;2023-03-19T00:32:43;22.40;49.10
76607;DHT22;65498;50.916;4.698;2023-03-19T00:35:10;22.40;48.90
76607;DHT22;65498;50.916;4.698;2023-03-19T00:37:38;22.30;49.20
76607;DHT22;65498;50.916;4.698;2023-03-19T00:40:07;22.30;49.30
76607;DHT22;65498;50.916;4.698;2023-03-19T00:42:35;22.30;49.30
76607;DHT22;65498;50.916;4.698;2023-03-19T00:45:03;22.20;49.50
76607;DHT22;65498;50.916;4.698;2023-03-19T00:47:31;22.20;49.60
76607;DHT22;65498;50.916;4.698;2023-03-19T00:49:58;22.20;49.60
76607;DHT22;65498;50.916;4.698;2023-03-19T00:52:26;22.30;49.30
76607;DHT22;65498;50.916;4.698;2023-03-19T00:54:53;22.30;49.30
76607;DHT22;65498;50.916;4.698;2023-03-19T00:57:21;22.40;49.20
76607;DHT22;65498;50.916;4.698;2023-03-19T00:59:49;22.40;49.00
76607;DHT22;65498;50.916;4.698;2023-03-19T01:02:17;22.30;49.30
76607;DHT22;65498;50.916;4.698;2023-03-19T01:04:48;22.20;49.30
76607;DHT22;65498;50.916;4.698;2023-03-19T01:07:16;22.30;49.40
76607;DHT22;65498;50.916;4.698;2023-03-19T01:09:44;22.30;49.20
76607;DHT22;65498;50.916;4.698;2023-03-19T01:12:11;22.30;49.30
76607;DHT22;65498;50.916;4.698;2023-03-19T01:14:39;22.20;49.30
76607;DHT22;65498;50.916;4.698;2023-03-19T01:17:06;22.20;49.30
76607;DHT22;65498;50.916;4.698;2023-03-19T01:19:34;22.30;49.20
76607;DHT22;65498;50.916;4.698;2023-03-19T01:22:02;22.30;49.30
76607;DHT22;65498;50.916;4.698;2023-03-19T01:24:30;22.30;49.20
76607;DHT22;65498;50.916;4.698;2023-03-19T01:26:58;22.30;49.10
76607;DHT22;65498;50.916;4.698;2023-03-19T01:29:25;22.30;49.30
76607;DHT22;65498;50.916;4.698;2023-03-19T01:31:53;22.30;49.30
76607;DHT22;65498;50.916;4.698;2023-03-19T01:34:21;22.40;49.10
76607;DHT22;65498;50.916;4.698;2023-03-19T01:36:49;22.30;49.20
76607;DHT22;65498;50.916;4.698;2023-03-19T01:39:17;22.30;49.30
76607;DHT22;65498;50.916;4.698;2023-03-19T01:41:45;22.40;49.20
76607;DHT22;65498;50.916;4.698;2023-03-19T01:44:32;22.30;49.30
76607;DHT22;65498;50.916;4.698;2023-03-19T01:46:56;22.30;49.30
76607;DHT22;65498;50.916;4.698;2023-03-19T01:49:25;22.30;49.00
76607;DHT22;65498;50.916;4.698;2023-03-19T01:51:55;22.40;49.10
76607;DHT22;65498;50.916;4.698;2023-03-19T01:54:23;22.30;49.40
76607;DHT22;65498;50.916;4.698;2023-03-19T01:56:57;22.30;49.20
76607;DHT22;65498;50.916;4.698;2023-03-19T01:59:28;22.40;49.10
76607;DHT22;65498;50.916;4.698;2023-03-19T02:02:01;22.30;49.30
76607;DHT22;65498;50.916;4.698;2023-03-19T02:04:30;22.30;49.40
76607;DHT22;65498;50.916;4.698;2023-03-19T02:07:01;22.20;49.50
76607;DHT22;65498;50.916;4.698;2023-03-19T02:09:29;22.30;49.50
76607;DHT22;65498;50.916;4.698;2023-03-19T02:11:59;22.20;49.40
76607;DHT22;65498;50.916;4.698;2023-03-19T02:14:27;22.20;49.50
76607;DHT22;65498;50.916;4.698;2023-03-19T02:16:55;22.30;49.30
76607;DHT22;65498;50.916;4.698;2023-03-19T02:22:05;22.30;49.10
76607;DHT22;65498;50.916;4.698;2023-03-19T02:24:39;22.20;49.30
76607;DHT22;65498;50.916;4.698;2023-03-19T02:27:07;22.20;49.50
76607;DHT22;65498;50.916;4.698;2023-03-19T02:29:35;22.20;49.60
76607;DHT22;65498;50.916;4.698;2023-03-19T02:32:02;22.20;49.80
76607;DHT22;65498;50.916;4.698;2023-03-19T02:34:33;22.30;49.40
76607;DHT22;65498;50.916;4.698;2023-03-19T02:37:04;22.20;49.40
76607;DHT22;65498;50.916;4.698;2023-03-19T02:39:48;22.30;49.30
76607;DHT22;65498;50.916;4.698;2023-03-19T02:42:15;22.30;49.10
76607;DHT22;65498;50.916;4.698;2023-03-19T02:44:44;22.30;49.30
76607;DHT22;65498;50.916;4.698;2023-03-19T02:47:12;22.30;49.10
76607;DHT22;65498;50.916;4.698;2023-03-19T02:49:39;22.30;49.20
76607;DHT22;65498;50.916;4.698;2023-03-19T02:52:08;22.40;49.00
76607;DHT22;65498;50.916;4.698;2023-03-19T02:54:35;22.30;49.20
76607;DHT22;65498;50.916;4.698;2023-03-19T02:57:03;22.20;49.50
76607;DHT22;65498;50.916;4.698;2023-03-19T02:59:31;22.30;49.20
76607;DHT22;65498;50.916;4.698;2023-03-19T03:01:58;22.20;49.30
76607;DHT22;65498;50.916;4.698;2023-03-19T03:04:26;22.30;49.00
76607;DHT22;65498;50.916;4.698;2023-03-19T03:06:54;22.30;49.10
76607;DHT22;65498;50.916;4.698;2023-03-19T03:09:22;22.20;49.10
76607;DHT22;65498;50.916;4.698;2023-03-19T03:11:50;22.20;49.30
76607;DHT22;65498;50.916;4.698;2023-03-19T03:14:17;22.20;49.30
76607;DHT22;65498;50.916;4.698;2023-03-19T03:16:45;22.20;49.40
76607;DHT22;65498;50.916;4.698;2023-03-19T03:19:12;22.30;49.10
76607;DHT22;65498;50.916;4.698;2023-03-19T03:21:41;22.30;49.10
76607;DHT22;65498;50.916;4.698;2023-03-19T03:24:09;22.30;49.30
76607;DHT22;65498;50.916;4.698;2023-03-19T03:26:37;22.20;49.40
76607;DHT22;65498;50.916;4.698;2023-03-19T03:29:05;22.20;49.40
76607;DHT22;65498;50.916;4.698;2023-03-19T03:31:33;22.20;49.40
76607;DHT22;65498;50.916;4.698;2023-03-19T03:34:01;22.30;49.30
76607;DHT22;65498;50.916;4.698;2023-03-19T03:36:29;22.20;49.40
76607;DHT22;65498;50.916;4.698;2023-03-19T03:38:57;22.20;49.50
76607;DHT22;65498;50.916;4.698;2023-03-19T03:41:25;22.30;49.10
76607;DHT22;65498;50.916;4.698;2023-03-19T03:43:53;22.20;49.30
76607;DHT22;65498;50.916;4.698;2023-03-19T03:46:21;22.20;49.40
76607;DHT22;65498;50.916;4.698;2023-03-19T03:48:48;22.20;49.40
76607;DHT22;65498;50.916;4.698;2023-03-19T03:51:17;22.20;49.40
76607;DHT22;65498;50.916;4.698;2023-03-19T03:53:45;22.20;50.00
76607;DHT22;65498;50.916;4.698;2023-03-19T03:56:13;22.30;49.20
76607;DHT22;65498;50.916;4.698;2023-03-19T03:58:40;22.30;49.00
76607;DHT22;65498;50.916;4.698;2023-03-19T04:01:12;22.20;49.20
76607;DHT22;65498;50.916;4.698;2023-03-19T04:03:38;22.20;49.40
76607;DHT22;65498;50.916;4.698;2023-03-19T04:06:06;22.30;49.20
76607;DHT22;65498;50.916;4.698;2023-03-19T04:08:35;22.30;49.10
76607;DHT22;65498;50.916;4.698;2023-03-19T04:11:07;22.30;49.30
76607;DHT22;65498;50.916;4.698;2023-03-19T04:13:35;22.20;49.50
76607;DHT22;65498;50.916;4.698;2023-03-19T04:16:07;22.10;49.50
76607;DHT22;65498;50.916;4.698;2023-03-19T04:18:36;22.20;49.40
76607;DHT22;65498;50.916;4.698;2023-03-19T04:21:05;22.20;49.50
76607;DHT22;65498;50.916;4.698;2023-03-19T04:23:33;22.10;49.70
76607;DHT22;65498;50.916;4.698;2023-03-19T04:26:02;22.10;49.80
76607;DHT22;65498;50.916;4.698;2023-03-19T04:28:30;22.20;50.40
76607;DHT22;65498;50.916;4.698;2023-03-19T04:31:03;22.20;49.50
76607;DHT22;65498;50.916;4.698;2023-03-19T04:33:31;22.20;49.50
76607;DHT22;65498;50.916;4.698;2023-03-19T04:35:59;22.10;49.60
76607;DHT22;65498;50.916;4.698;2023-03-19T04:38:27;22.10;49.40
76607;DHT22;65498;50.916;4.698;2023-03-19T04:40:55;22.30;50.10
76607;DHT22;65498;50.916;4.698;2023-03-19T04:43:23;22.30;49.40
76607;DHT22;65498;50.916;4.698;2023-03-19T04:45:51;22.20;49.40
76607;DHT22;65498;50.916;4.698;2023-03-19T04:48:19;22.40;49.10
76607;DHT22;65498;50.916;4.698;2023-03-19T04:50:47;22.20;49.10
76607;DHT22;65498;50.916;4.698;2023-03-19T04:53:16;22.30;49.30
76607;DHT22;65498;50.916;4.698;2023-03-19T04:55:46;22.20;49.40
76607;DHT22;65498;50.916;4.698;2023-03-19T04:58:13;22.30;49.30
76607;DHT22;65498;50.916;4.698;2023-03-19T05:00:41;22.20;49.40
76607;DHT22;65498;50.916;4.698;2023-03-19T05:03:10;22.30;49.50
76607;DHT22;65498;50.916;4.698;2023-03-19T05:05:38;22.20;49.50
76607;DHT22;65498;50.916;4.698;2023-03-19T05:08:06;22.30;49.50
76607;DHT22;65498;50.916;4.698;2023-03-19T05:10:35;22.20;49.40
76607;DHT22;65498;50.916;4.698;2023-03-19T05:13:03;22.20;49.50
76607;DHT22;65498;50.916;4.698;2023-03-19T05:15:31;22.20;49.50
76607;DHT22;65498;50.916;4.698;2023-03-19T05:17:58;22.30;49.50
76607;DHT22;65498;50.916;4.698;2023-03-19T05:20:26;22.20;49.50
76607;DHT22;65498;50.916;4.698;2023-03-19T05:22:53;22.20;49.50
76607;DHT22;65498;50.916;4.698;2023-03-19T05:25:21;22.10;49.70
76607;DHT22;65498;50.916;4.698;2023-03-19T05:27:48;22.10;49.70
76607;DHT22;65498;50.916;4.698;2023-03-19T05:30:16;22.00;49.70
76607;DHT22;65498;50.916;4.698;2023-03-19T05:32:44;22.10;49.60
76607;DHT22;65498;50.916;4.698;2023-03-19T05:35:12;22.10;49.90
76607;DHT22;65498;50.916;4.698;2023-03-19T05:37:40;22.10;50.00
76607;DHT22;65498;50.916;4.698;2023-03-19T05:40:08;22.10;49.80
76607;DHT22;65498;50.916;4.698;2023-03-19T05:42:36;22.20;49.60
76607;DHT22;65498;50.916;4.698;2023-03-19T05:45:04;22.20;49.60
76607;DHT22;65498;50.916;4.698;2023-03-19T05:47:32;22.10;49.60
76607;DHT22;65498;50.916;4.698;2023-03-19T05:50:00;22.10;50.10
76607;DHT22;65498;50.916;4.698;2023-03-19T05:52:28;22.10;50.30
76607;DHT22;65498;50.916;4.698;2023-03-19T05:54:55;22.10;50.10
76607;DHT22;65498;50.916;4.698;2023-03-19T05:57:23;22.10;50.20
76607;DHT22;65498;50.916;4.698;2023-03-19T05:59:50;22.10;50.10
76607;DHT22;65498;50.916;4.698;2023-03-19T06:02:18;22.20;50.10
76607;DHT22;65498;50.916;4.698;2023-03-19T06:04:45;22.20;49.80
76607;DHT22;65498;50.916;4.698;2023-03-19T06:07:13;22.10;49.60
76607;DHT22;65498;50.916;4.698;2023-03-19T06:09:41;22.10;50.00
76607;DHT22;65498;50.916;4.698;2023-03-19T06:12:08;22.10;49.80
76607;DHT22;65498;50.916;4.698;2023-03-19T06:14:36;22.10;49.90
76607;DHT22;65498;50.916;4.698;2023-03-19T06:17:03;22.10;49.60
76607;DHT22;65498;50.916;4.698;2023-03-19T06:19:32;22.10;49.60
76607;DHT22;65498;50.916;4.698;2023-03-19T06:22:00;22.10;49.50
76607;DHT22;65498;50.916;4.698;2023-03-19T06:24:27;22.20;49.50
76607;DHT22;65498;50.916;4.698;2023-03-19T06:26:56;22.30;49.30
76607;DHT22;65498;50.916;4.698;2023-03-19T06:29:23;22.20;49.40
76607;DHT22;65498;50.916;4.698;2023-03-19T06:31:51;22.20;49.50
76607;DHT22;65498;50.916;4.698;2023-03-19T06:34:19;22.10;49.30
76607;DHT22;65498;50.916;4.698;2023-03-19T06:36:47;22.10;49.30
76607;DHT22;65498;50.916;4.698;2023-03-19T06:39:14;22.20;49.30
76607;DHT22;65498;50.916;4.698;2023-03-19T06:41:42;22.30;49.00
76607;DHT22;65498;50.916;4.698;2023-03-19T06:44:09;22.20;49.10
76607;DHT22;65498;50.916;4.698;2023-03-19T06:46:37;22.20;49.00
76607;DHT22;65498;50.916;4.698;2023-03-19T06:49:05;22.20;49.00
76607;DHT22;65498;50.916;4.698;2023-03-19T06:51:32;22.20;49.10
76607;DHT22;65498;50.916;4.698;2023-03-19T06:54:00;22.20;49.40
76607;DHT22;65498;50.916;4.698;2023-03-19T06:56:29;22.20;49.20
76607;DHT22;65498;50.916;4.698;2023-03-19T06:58:56;22.10;49.30
76607;DHT22;65498;50.916;4.698;2023-03-19T07:01:24;22.10;49.40
76607;DHT22;65498;50.916;4.698;2023-03-19T07:03:51;22.10;49.50
76607;DHT22;65498;50.916;4.698;2023-03-19T07:06:19;22.10;49.70
76607;DHT22;65498;50.916;4.698;2023-03-19T07:08:46;22.10;49.80
76607;DHT22;65498;50.916;4.698;2023-03-19T07:11:14;22.00;49.80
76607;DHT22;65498;50.916;4.698;2023-03-19T07:13:42;22.10;50.00
76607;DHT22;65498;50.916;4.698;2023-03-19T07:16:09;22.10;49.90
76607;DHT22;65498;50.916;4.698;2023-03-19T07:18:37;22.20;49.70
76607;DHT22;65498;50.916;4.698;2023-03-19T07:21:05;22.20;49.30
76607;DHT22;65498;50.916;4.698;2023-03-19T07:23:32;22.20;49.40
76607;DHT22;65498;50.916;4.698;2023-03-19T07:26:00;22.20;49.40
76607;DHT22;65498;50.916;4.698;2023-03-19T07:28:27;22.30;49.00
76607;DHT22;65498;50.916;4.698;2023-03-19T07:30:55;22.30;48.80
76607;DHT22;65498;50.916;4.698;2023-03-19T07:33:23;22.30;49.10
76607;DHT22;65498;50.916;4.698;2023-03-19T07:35:51;22.30;49.00
76607;DHT22;65498;50.916;4.698;2023-03-19T07:38:18;22.30;49.00
76607;DHT22;65498;50.916;4.698;2023-03-19T07:40:46;22.40;48.90
76607;DHT22;65498;50.916;4.698;2023-03-19T07:43:13;22.40;49.10
76607;DHT22;65498;50.916;4.698;2023-03-19T07:45:41;22.40;49.00
76607;DHT22;65498;50.916;4.698;2023-03-19T07:48:09;22.40;49.10
76607;DHT22;65498;50.916;4.698;2023-03-19T07:50:37;22.40;49.00
76607;DHT22;65498;50.916;4.698;2023-03-19T07:53:04;22.30;49.30
76607;DHT22;65498;50.916;4.698;2023-03-19T07:55:33;22.30;49.00
76607;DHT22;65498;50.916;4.698;2023-03-19T07:58:00;22.20;49.00
76607;DHT22;65498;50.916;4.698;2023-03-19T08:00:28;22.30;49.30
76607;DHT22;65498;50.916;4.698;2023-03-19T08:02:56;22.30;49.10
76607;DHT22;65498;50.916;4.698;2023-03-19T08:05:23;22.30;49.00
76607;DHT22;65498;50.916;4.698;2023-03-19T08:07:51;22.30;48.90
76607;DHT22;65498;50.916;4.698;2023-03-19T08:10:18;22.40;49.20
76607;DHT22;65498;50.916;4.698;2023-03-19T08:12:46;22.40;49.20
76607;DHT22;65498;50.916;4.698;2023-03-19T08:15:14;22.40;49.00
76607;DHT22;65498;50.916;4.698;2023-03-19T08:17:42;22.40;49.30
76607;DHT22;65498;50.916;4.698;2023-03-19T08:20:12;22.40;48.80
76607;DHT22;65498;50.916;4.698;2023-03-19T08:22:42;22.40;49.10
76607;DHT22;65498;50.916;4.698;2023-03-19T08:25:10;22.40;49.30
76607;DHT22;65498;50.916;4.698;2023-03-19T08:27:38;22.40;48.90
76607;DHT22;65498;50.916;4.698;2023-03-19T08:30:07;22.40;49.20
76607;DHT22;65498;50.916;4.698;2023-03-19T08:32:36;22.40;49.60
76607;DHT22;65498;50.916;4.698;2023-03-19T08:35:04;22.40;49.30
76607;DHT22;65498;50.916;4.698;2023-03-19T08:37:32;22.40;48.80
76607;DHT22;65498;50.916;4.698;2023-03-19T08:39:59;22.40;49.00
76607;DHT22;65498;50.916;4.698;2023-03-19T08:42:27;22.50;49.10
76607;DHT22;65498;50.916;4.698;2023-03-19T08:44:55;22.40;48.80
76607;DHT22;65498;50.916;4.698;2023-03-19T08:47:22;22.50;49.10
76607;DHT22;65498;50.916;4.698;2023-03-19T08:49:50;22.40;48.90
76607;DHT22;65498;50.916;4.698;2023-03-19T08:52:19;22.40;49.30
76607;DHT22;65498;50.916;4.698;2023-03-19T08:54:46;22.50;48.80
76607;DHT22;65498;50.916;4.698;2023-03-19T08:57:14;22.40;48.90
76607;DHT22;65498;50.916;4.698;2023-03-19T08:59:42;22.50;49.10
76607;DHT22;65498;50.916;4.698;2023-03-19T09:02:10;22.50;49.00
76607;DHT22;65498;50.916;4.698;2023-03-19T09:04:42;22.50;49.10
76607;DHT22;65498;50.916;4.698;2023-03-19T09:07:10;22.40;49.10
76607;DHT22;65498;50.916;4.698;2023-03-19T09:09:43;22.50;49.30
76607;DHT22;65498;50.916;4.698;2023-03-19T09:12:13;22.50;49.10
76607;DHT22;65498;50.916;4.698;2023-03-19T09:14:42;22.60;49.30
76607;DHT22;65498;50.916;4.698;2023-03-19T09:17:10;22.50;49.40
76607;DHT22;65498;50.916;4.698;2023-03-19T09:19:39;22.50;49.50
76607;DHT22;65498;50.916;4.698;2023-03-19T09:22:07;22.50;49.30
76607;DHT22;65498;50.916;4.698;2023-03-19T09:24:35;22.50;49.80
76607;DHT22;65498;50.916;4.698;2023-03-19T09:27:02;22.60;49.70
76607;DHT22;65498;50.916;4.698;2023-03-19T09:29:30;22.60;49.40
76607;DHT22;65498;50.916;4.698;2023-03-19T09:31:57;22.60;49.80
76607;DHT22;65498;50.916;4.698;2023-03-19T09:34:26;22.60;49.60
76607;DHT22;65498;50.916;4.698;2023-03-19T09:36:53;22.60;49.70
76607;DHT22;65498;50.916;4.698;2023-03-19T09:39:21;22.60;49.60
76607;DHT22;65498;50.916;4.698;2023-03-19T09:41:54;22.60;49.50
76607;DHT22;65498;50.916;4.698;2023-03-19T09:44:26;22.50;50.00
76607;DHT22;65498;50.916;4.698;2023-03-19T09:47:03;22.60;49.80
76607;DHT22;65498;50.916;4.698;2023-03-19T09:49:30;22.50;50.10
76607;DHT22;65498;50.916;4.698;2023-03-19T09:54:47;22.50;49.70
76607;DHT22;65498;50.916;4.698;2023-03-19T09:57:18;22.40;49.90
76607;DHT22;65498;50.916;4.698;2023-03-19T09:59:47;22.40;50.30
76607;DHT22;65498;50.916;4.698;2023-03-19T10:05:36;22.40;50.90
76607;DHT22;65498;50.916;4.698;2023-03-19T10:15:30;22.50;50.00
76607;DHT22;65498;50.916;4.698;2023-03-19T10:18:16;22.40;50.20
76607;DHT22;65498;50.916;4.698;2023-03-19T10:21:02;22.50;50.00
76607;DHT22;65498;50.916;4.698;2023-03-19T10:23:59;22.30;50.30
76607;DHT22;65498;50.916;4.698;2023-03-19T10:26:32;22.40;50.20
76607;DHT22;65498;50.916;4.698;2023-03-19T10:29:14;22.40;50.00
76607;DHT22;65498;50.916;4.698;2023-03-19T10:34:30;22.40;50.00
76607;DHT22;65498;50.916;4.698;2023-03-19T10:39:43;22.30;50.20
76607;DHT22;65498;50.916;4.698;2023-03-19T10:47:38;22.50;49.90
76607;DHT22;65498;50.916;4.698;2023-03-19T10:50:08;22.40;50.20
76607;DHT22;65498;50.916;4.698;2023-03-19T10:52:36;22.50;49.70
76607;DHT22;65498;50.916;4.698;2023-03-19T10:55:16;22.40;50.30
76607;DHT22;65498;50.916;4.698;2023-03-19T10:57:41;22.50;50.40
76607;DHT22;65498;50.916;4.698;2023-03-19T11:00:14;22.40;50.60
76607;DHT22;65498;50.916;4.698;2023-03-19T11:02:40;22.40;50.70
76607;DHT22;65498;50.916;4.698;2023-03-19T11:07:42;22.50;50.90
76607;DHT22;65498;50.916;4.698;2023-03-19T11:10:16;22.50;50.00
76607;DHT22;65498;50.916;4.698;2023-03-19T11:12:51;22.60;50.30
76607;DHT22;65498;50.916;4.698;2023-03-19T11:15:30;22.60;49.90
76607;DHT22;65498;50.916;4.698;2023-03-19T11:17:57;22.60;49.90
76607;DHT22;65498;50.916;4.698;2023-03-19T11:20:31;22.60;50.10
76607;DHT22;65498;50.916;4.698;2023-03-19T11:23:00;22.70;49.90
76607;DHT22;65498;50.916;4.698;2023-03-19T11:25:38;22.60;50.10
76607;DHT22;65498;50.916;4.698;2023-03-19T11:28:18;22.50;50.60
76607;DHT22;65498;50.916;4.698;2023-03-19T11:33:38;22.50;50.70
76607;DHT22;65498;50.916;4.698;2023-03-19T11:36:12;22.50;50.80
76607;DHT22;65498;50.916;4.698;2023-03-19T11:41:26;22.60;50.70
76607;DHT22;65498;50.916;4.698;2023-03-19T11:43:58;22.60;50.30
76607;DHT22;65498;50.916;4.698;2023-03-19T11:46:39;22.70;50.20
76607;DHT22;65498;50.916;4.698;2023-03-19T11:49:30;22.70;50.10
76607;DHT22;65498;50.916;4.698;2023-03-19T11:52:13;22.70;50.10
76607;DHT22;65498;50.916;4.698;2023-03-19T11:54:52;22.80;49.70
76607;DHT22;65498;50.916;4.698;2023-03-19T12:00:35;22.70;49.90
76607;DHT22;65498;50.916;4.698;2023-03-19T12:05:59;22.60;50.10
76607;DHT22;65498;50.916;4.698;2023-03-19T12:08:32;22.50;50.80
76607;DHT22;65498;50.916;4.698;2023-03-19T12:20:27;22.60;50.50
76607;DHT22;65498;50.916;4.698;2023-03-19T12:23:20;22.70;50.10
76607;DHT22;65498;50.916;4.698;2023-03-19T12:31:37;22.70;50.20
76607;DHT22;65498;50.916;4.698;2023-03-19T12:34:22;22.70;50.30
76607;DHT22;65498;50.916;4.698;2023-03-19T12:37:06;22.70;50.90
76607;DHT22;65498;50.916;4.698;2023-03-19T12:39:23;22.60;50.30
76607;DHT22;65498;50.916;4.698;2023-03-19T12:41:50;22.70;50.30
76607;DHT22;65498;50.916;4.698;2023-03-19T12:44:28;22.80;50.20
76607;DHT22;65498;50.916;4.698;2023-03-19T12:47:10;22.70;50.20
76607;DHT22;65498;50.916;4.698;2023-03-19T12:49:40;22.60;50.40
76607;DHT22;65498;50.916;4.698;2023-03-19T12:54:58;22.80;50.30
76607;DHT22;65498;50.916;4.698;2023-03-19T12:57:36;22.70;50.40
76607;DHT22;65498;50.916;4.698;2023-03-19T13:03:14;22.80;50.30
76607;DHT22;65498;50.916;4.698;2023-03-19T13:05:51;22.70;50.50
76607;DHT22;65498;50.916;4.698;2023-03-19T13:08:38;22.80;50.30
76607;DHT22;65498;50.916;4.698;2023-03-19T13:11:12;22.80;50.10
76607;DHT22;65498;50.916;4.698;2023-03-19T13:21:44;22.80;50.00
76607;DHT22;65498;50.916;4.698;2023-03-19T13:24:30;22.80;50.10
76607;DHT22;65498;50.916;4.698;2023-03-19T13:26:59;22.70;50.40
76607;DHT22;65498;50.916;4.698;2023-03-19T13:29:32;22.60;50.60
76607;DHT22;65498;50.916;4.698;2023-03-19T13:32:22;22.70;50.70
76607;DHT22;65498;50.916;4.698;2023-03-19T13:34:34;22.70;50.50
76607;DHT22;65498;50.916;4.698;2023-03-19T13:37:19;22.70;50.60
76607;DHT22;65498;50.916;4.698;2023-03-19T13:39:48;22.70;50.10
76607;DHT22;65498;50.916;4.698;2023-03-19T13:42:22;22.90;50.50
76607;DHT22;65498;50.916;4.698;2023-03-19T13:44:53;22.90;49.90
76607;DHT22;65498;50.916;4.698;2023-03-19T13:55:28;23.00;50.50
76607;DHT22;65498;50.916;4.698;2023-03-19T13:58:17;23.00;49.70
76607;DHT22;65498;50.916;4.698;2023-03-19T14:00:54;22.90;50.20
76607;DHT22;65498;50.916;4.698;2023-03-19T14:03:30;22.80;50.20
76607;DHT22;65498;50.916;4.698;2023-03-19T14:05:59;22.70;50.60
76607;DHT22;65498;50.916;4.698;2023-03-19T14:08:31;22.60;50.60
76607;DHT22;65498;50.916;4.698;2023-03-19T14:10:59;22.70;50.50
76607;DHT22;65498;50.916;4.698;2023-03-19T14:13:39;22.70;50.30
76607;DHT22;65498;50.916;4.698;2023-03-19T14:16:14;22.70;50.20
76607;DHT22;65498;50.916;4.698;2023-03-19T14:18:40;22.70;50.00
76607;DHT22;65498;50.916;4.698;2023-03-19T14:21:29;22.80;50.00
76607;DHT22;65498;50.916;4.698;2023-03-19T14:23:53;22.80;49.80
76607;DHT22;65498;50.916;4.698;2023-03-19T14:26:24;22.90;50.10
76607;DHT22;65498;50.916;4.698;2023-03-19T14:29:05;23.00;49.60
76607;DHT22;65498;50.916;4.698;2023-03-19T14:31:49;22.90;49.40
76607;DHT22;65498;50.916;4.698;2023-03-19T14:34:25;22.90;50.00
76607;DHT22;65498;50.916;4.698;2023-03-19T14:37:15;23.00;49.80
76607;DHT22;65498;50.916;4.698;2023-03-19T14:39:43;22.80;50.10
76607;DHT22;65498;50.916;4.698;2023-03-19T14:42:37;22.80;50.30
76607;DHT22;65498;50.916;4.698;2023-03-19T14:50:34;22.80;49.90
76607;DHT22;65498;50.916;4.698;2023-03-19T14:53:04;22.70;49.80
76607;DHT22;65498;50.916;4.698;2023-03-19T14:55:34;22.90;49.90
76607;DHT22;65498;50.916;4.698;2023-03-19T14:58:04;22.80;49.40
76607;DHT22;65498;50.916;4.698;2023-03-19T15:00:41;22.80;49.50
76607;DHT22;65498;50.916;4.698;2023-03-19T15:03:28;22.90;49.70
76607;DHT22;65498;50.916;4.698;2023-03-19T15:05:55;22.90;49.40
76607;DHT22;65498;50.916;4.698;2023-03-19T15:08:22;22.90;49.40
76607;DHT22;65498;50.916;4.698;2023-03-19T15:11:03;22.80;49.40
76607;DHT22;65498;50.916;4.698;2023-03-19T15:18:48;22.70;49.70
76607;DHT22;65498;50.916;4.698;2023-03-19T15:21:16;22.70;49.90
76607;DHT22;65498;50.916;4.698;2023-03-19T15:23:45;22.60;49.90
76607;DHT22;65498;50.916;4.698;2023-03-19T15:26:13;22.70;49.90
76607;DHT22;65498;50.916;4.698;2023-03-19T15:28:47;22.70;49.70
76607;DHT22;65498;50.916;4.698;2023-03-19T15:31:12;22.70;49.60
76607;DHT22;65498;50.916;4.698;2023-03-19T15:33:40;22.80;49.30
76607;DHT22;65498;50.916;4.698;2023-03-19T15:36:11;22.80;49.70
76607;DHT22;65498;50.916;4.698;2023-03-19T15:39:26;22.80;49.20
76607;DHT22;65498;50.916;4.698;2023-03-19T15:41:09;22.90;49.10
76607;DHT22;65498;50.916;4.698;2023-03-19T15:43:38;22.90;49.20
76607;DHT22;65498;50.916;4.698;2023-03-19T15:46:13;23.00;48.80
76607;DHT22;65498;50.916;4.698;2023-03-19T15:48:50;23.00;48.60
76607;DHT22;65498;50.916;4.698;2023-03-19T15:51:19;22.90;49.60
76607;DHT22;65498;50.916;4.698;2023-03-19T15:53:48;22.90;49.30
76607;DHT22;65498;50.916;4.698;2023-03-19T15:56:16;22.70;49.30
76607;DHT22;65498;50.916;4.698;2023-03-19T15:58:47;22.70;49.40
76607;DHT22;65498;50.916;4.698;2023-03-19T16:01:17;22.70;49.50
76607;DHT22;65498;50.916;4.698;2023-03-19T16:03:58;22.70;49.30
76607;DHT22;65498;50.916;4.698;2023-03-19T16:06:29;22.70;49.50
76607;DHT22;65498;50.916;4.698;2023-03-19T16:11:44;22.70;49.30
76607;DHT22;65498;50.916;4.698;2023-03-19T16:14:34;22.70;49.50
76607;DHT22;65498;50.916;4.698;2023-03-19T16:17:13;22.80;49.60
76607;DHT22;65498;50.916;4.698;2023-03-19T16:19:37;22.80;49.10
76607;DHT22;65498;50.916;4.698;2023-03-19T16:22:15;22.80;49.10
76607;DHT22;65498;50.916;4.698;2023-03-19T16:24:41;22.80;49.70
76607;DHT22;65498;50.916;4.698;2023-03-19T16:27:17;22.80;49.60
76607;DHT22;65498;50.916;4.698;2023-03-19T16:29:47;22.90;50.10
76607;DHT22;65498;50.916;4.698;2023-03-19T16:32:19;22.80;50.00
76607;DHT22;65498;50.916;4.698;2023-03-19T16:35:02;22.70;51.20
76607;DHT22;65498;50.916;4.698;2023-03-19T16:37:32;22.90;51.50
76607;DHT22;65498;50.916;4.698;2023-03-19T16:40:14;22.80;51.80
76607;DHT22;65498;50.916;4.698;2023-03-19T16:42:39;22.80;51.30
76607;DHT22;65498;50.916;4.698;2023-03-19T16:45:24;22.80;52.40
76607;DHT22;65498;50.916;4.698;2023-03-19T16:47:54;22.70;53.50
76607;DHT22;65498;50.916;4.698;2023-03-19T16:50:31;22.80;53.20
76607;DHT22;65498;50.916;4.698;2023-03-19T16:53:02;22.80;52.40
76607;DHT22;65498;50.916;4.698;2023-03-19T16:55:30;22.80;53.60
76607;DHT22;65498;50.916;4.698;2023-03-19T16:58:03;22.80;55.10
76607;DHT22;65498;50.916;4.698;2023-03-19T17:00:32;22.90;53.80
76607;DHT22;65498;50.916;4.698;2023-03-19T17:03:01;22.90;52.60
76607;DHT22;65498;50.916;4.698;2023-03-19T17:05:28;22.90;53.70
76607;DHT22;65498;50.916;4.698;2023-03-19T17:07:56;22.90;53.90
76607;DHT22;65498;50.916;4.698;2023-03-19T17:10:26;22.70;53.40
76607;DHT22;65498;50.916;4.698;2023-03-19T17:12:54;22.80;53.70
76607;DHT22;65498;50.916;4.698;2023-03-19T17:15:30;22.70;53.10
76607;DHT22;65498;50.916;4.698;2023-03-19T17:17:55;22.70;53.30
76607;DHT22;65498;50.916;4.698;2023-03-19T17:20:29;22.60;53.40